Harwood, North Dakota
Current Conditions -  °F | °C
As of 6:18 PM on Friday 19 Dec 2014 (Local Time) from KFAR Reporting Station
Haze Haze  
Wind Chill: 23°   Ceiling: 1000
Heat Index: 32°   Visibility: 4mi
Dew Point: 28°   Wind: 13mph
Humidity: 85%   Direction: 160°SSE
Pressure: 30.03"   Gusts: NA
Location:  46.98°N, 96.88°W
Report Text: KFAR 200018Z 16011KT 4SM BR OVC010 00/M02 A3003 RMK AO2 CIG 007V013 T00001022
Loading
Personal Weather Stations






























Interactive Weather Map New forecast layout! Learn more

10-Day Weather Forecast

Advertisements
Track Severe Weather on mobile